Time;durP1;ratioP1;P1;durP2;ratioP2;P2;SDS_P1;SDS_P2;PMS_P1;PMS_P2;Temp;Humidity;BMP_temperature;BMP_pressure;BME280_temperature;BME280_humidity;BME280_pressure;Samples;Min_cycle;Max_cycle;Signal;HPM_P1;HPM_P2
2022/10/07 00:01:14;;;;;;;6.00;1.80;;;;;;;19.26;46.86;102691.56;5060645;28;20032;-62
2022/10/07 00:03:40;;;;;;;5.90;2.00;;;;;;;19.25;47.18;102692.50;5060583;28;20024;-64
2022/10/07 00:06:14;;;;;;;5.03;2.25;;;;;;;19.28;47.12;102697.63;5059426;28;20032;-62
2022/10/07 00:08:40;;;;;;;;;;;;;;;19.26;47.05;102691.56;5061114;28;20487;-64
2022/10/07 00:11:10;;;;;;;4.68;1.90;;;;;;;19.20;46.82;102680.41;5060757;28;19912;-63
2022/10/07 00:13:37;;;;;;;6.75;2.47;;;;;;;19.24;46.92;102686.38;5060634;28;20476;-64
2022/10/07 00:16:08;;;;;;;4.97;2.08;;;;;;;19.25;47.03;102690.72;5060717;28;20151;-65
2022/10/07 00:18:35;;;;;;;5.10;1.98;;;;;;;19.24;47.07;102686.38;5060711;28;20037;-63
2022/10/07 00:21:02;;;;;;;5.22;1.83;;;;;;;19.16;46.91;102684.16;5060236;28;20028;-64
2022/10/07 00:23:28;;;;;;;4.78;1.90;;;;;;;19.17;46.76;102675.31;5060547;28;20483;-65
2022/10/07 00:25:53;;;;;;;4.67;1.60;;;;;;;19.23;46.92;102686.47;5060439;28;20056;-64
2022/10/07 00:28:18;;;;;;;7.27;1.93;;;;;;;19.15;47.07;102669.25;5060616;28;20344;-64
2022/10/07 00:30:43;;;;;;;4.97;1.77;;;;;;;19.15;47.05;102666.63;5062522;28;20363;-63
2022/10/07 00:33:09;;;;;;;6.90;2.23;;;;;;;19.14;47.00;102664.91;5064338;28;20338;-64
2022/10/07 00:35:34;;;;;;;5.53;2.10;;;;;;;19.15;46.76;102669.25;5063649;28;20277;-64
2022/10/07 00:37:59;;;;;;;5.32;1.98;;;;;;;19.19;46.98;102667.28;5064248;28;20374;-63
2022/10/07 00:40:25;;;;;;;5.65;1.90;;;;;;;19.13;46.67;102659.69;5063712;28;20040;-64
2022/10/07 00:42:50;;;;;;;5.32;2.10;;;;;;;19.19;46.99;102668.13;5063761;28;20029;-66
2022/10/07 00:45:18;;;;;;;6.00;1.90;;;;;;;19.19;46.72;102670.78;5063911;28;20526;-64
2022/10/07 00:47:45;;;;;;;5.28;2.00;;;;;;;19.20;46.88;102669.84;5063641;28;20354;-62
2022/10/07 00:50:25;;;;;;;4.70;1.80;;;;;;;19.18;46.63;102668.22;5063620;28;20037;-64
2022/10/07 00:52:55;;;;;;;6.93;2.08;;;;;;;19.12;46.78;102652.69;5063614;28;20059;-62
2022/10/07 00:55:24;;;;;;;4.55;2.08;;;;;;;19.11;46.95;102657.16;5063451;28;20112;-62
2022/10/07 00:57:54;;;;;;;5.95;2.13;;;;;;;19.16;46.91;102656.88;5063612;28;20122;-65
2022/10/07 01:00:22;;;;;;;6.78;2.22;;;;;;;19.07;46.69;102639.75;5063656;28;20032;-66
2022/10/07 01:02:48;;;;;;;5.32;2.08;;;;;;;19.13;46.77;102649.97;5063320;28;20479;-64
2022/10/07 01:05:13;;;;;;;6.35;2.10;;;;;;;19.09;46.75;102640.53;5063442;28;20037;-64
2022/10/07 01:07:40;;;;;;;5.03;1.98;;;;;;;19.12;46.54;102642.13;5063611;28;20189;-64
2022/10/07 01:10:08;;;;;;;5.22;2.65;;;;;;;19.13;46.42;102642.03;5063244;28;20040;-65
2022/10/07 01:12:56;;;;;;;5.10;2.30;;;;;;;19.13;46.80;102641.19;5063309;28;20118;-65
2022/10/07 01:15:41;;;;;;;5.60;1.80;;;;;;;19.13;46.64;102642.03;5063104;28;20127;-62
2022/10/07 01:18:21;;;;;;;4.15;1.83;;;;;;;19.05;46.83;102623.13;5062935;28;20090;-64
2022/10/07 01:20:56;;;;;;;5.05;2.00;;;;;;;19.10;46.67;102629.00;5062898;28;20050;-64
2022/10/07 01:23:38;;;;;;;5.20;2.00;;;;;;;19.09;46.71;102627.31;5063037;28;20067;-62
2022/10/07 01:26:07;;;;;;;5.47;2.05;;;;;;;19.09;46.63;102631.72;5062932;28;20163;-63
2022/10/07 01:28:43;;;;;;;5.50;1.85;;;;;;;19.10;46.50;102625.53;5063014;28;20044;-64
2022/10/07 01:31:13;;;;;;;4.88;1.98;;;;;;;19.08;46.73;102622.97;5061562;28;20047;-63
2022/10/07 01:33:42;;;;;;;4.75;1.83;;;;;;;19.07;46.63;102617.78;5062966;28;20047;-65
2022/10/07 01:36:16;;;;;;;5.97;2.40;;;;;;;19.00;46.48;102601.41;5062601;28;20032;-65
2022/10/07 01:38:50;;;;;;;4.75;1.80;;;;;;;19.02;46.45;102596.88;5063094;28;20033;-63
2022/10/07 01:41:18;;;;;;;5.20;1.85;;;;;;;19.01;46.53;102589.91;5062768;28;20048;-63
2022/10/07 01:43:46;;;;;;;5.93;2.08;;;;;;;19.03;46.31;102594.16;5062837;28;20791;-65
2022/10/07 01:46:18;;;;;;;6.10;2.30;;;;;;;19.04;46.52;102595.00;5062815;28;20029;-63
2022/10/07 01:48:45;;;;;;;4.63;1.98;;;;;;;19.02;46.41;102575.75;5063272;28;20035;-64
2022/10/07 01:51:12;;;;;;;5.82;1.92;;;;;;;19.02;46.58;102579.22;5062571;28;20028;-63
2022/10/07 01:54:14;;;;;;;5.78;2.03;;;;;;;19.03;46.45;102577.47;5062223;28;20490;-64
2022/10/07 01:57:00;;;;;;;6.57;1.95;;;;;;;19.01;46.39;102574.91;5062746;28;20041;-64
2022/10/07 02:00:00;;;;;;;5.25;1.98;;;;;;;18.99;46.47;102566.22;5062216;28;20036;-64
2022/10/07 02:02:56;;;;;;;5.93;1.95;;;;;;;19.01;46.68;102560.84;5061950;28;20523;-63
2022/10/07 02:05:46;;;;;;;5.65;2.05;;;;;;;19.00;46.36;102556.50;5061945;28;20090;-63
2022/10/07 02:08:32;;;;;;;4.90;2.10;;;;;;;18.92;46.37;102543.72;5062353;28;20590;-64
2022/10/07 02:11:00;;;;;;;7.38;2.03;;;;;;;18.98;46.59;102563.69;5062468;28;20036;-65
2022/10/07 02:13:38;;;;;;;5.47;1.90;;;;;;;18.96;46.34;102547.03;5062033;28;20079;-65
2022/10/07 02:16:17;;;;;;;6.20;2.17;;;;;;;18.97;46.40;102543.47;5062252;28;20051;-64
2022/10/07 02:18:47;;;;;;;4.85;2.03;;;;;;;18.97;46.68;102543.47;5062155;28;20457;-64
2022/10/07 02:21:17;;;;;;;6.10;2.08;;;;;;;18.95;46.44;102543.56;5061716;28;20090;-63
2022/10/07 02:23:44;;;;;;;5.15;2.17;;;;;;;18.89;46.53;102529.84;5062660;28;20115;-64
2022/10/07 02:26:12;;;;;;;5.85;2.00;;;;;;;18.90;46.53;102528.91;5061742;28;20048;-62
2022/10/07 02:28:41;;;;;;;5.60;2.10;;;;;;;18.89;46.59;102525.41;5061597;28;20028;-63
2022/10/07 02:31:09;;;;;;;6.88;1.88;;;;;;;18.92;46.45;102527.88;5061259;28;20043;-63
2022/10/07 02:33:37;;;;;;;5.15;2.00;;;;;;;18.95;46.33;102524.22;5061741;28;20036;-63
2022/10/07 02:36:12;;;;;;;5.55;1.92;;;;;;;18.88;46.31;102512.28;5062002;28;20079;-64
2022/10/07 02:38:38;;;;;;;5.03;1.92;;;;;;;18.91;46.40;102520.03;5061440;28;20024;-64
2022/10/07 02:41:34;;;;;;;5.80;2.13;;;;;;;18.93;46.30;102520.78;5061807;28;20024;-65
2022/10/07 02:44:14;;;;;;;6.50;2.25;;;;;;;18.85;46.06;102505.41;5061252;28;20457;-64
2022/10/07 02:46:45;;;;;;;6.60;2.03;;;;;;;18.84;46.29;102507.19;5061612;28;20029;-65
2022/10/07 02:49:14;;;;;;;4.85;2.10;;;;;;;18.90;46.33;102506.00;5061632;28;20036;-63
2022/10/07 02:51:53;;;;;;;5.80;2.10;;;;;;;18.84;46.26;102486.06;5061629;28;20051;-63
2022/10/07 02:54:23;;;;;;;4.90;2.20;;;;;;;18.92;46.35;102500.63;5061256;28;20529;-63
2022/10/07 02:56:49;;;;;;;7.50;2.00;;;;;;;18.87;46.35;102506.16;5061463;28;20048;-64
2022/10/07 02:59:17;;;;;;;6.65;2.03;;;;;;;18.89;46.20;102503.44;5061011;28;20460;-64
2022/10/07 03:01:47;;;;;;;5.65;1.80;;;;;;;18.89;46.46;102500.81;5061140;28;20032;-64
2022/10/07 03:04:12;;;;;;;4.63;1.98;;;;;;;18.88;46.30;102493.81;5060072;28;20040;-64
2022/10/07 03:06:38;;;;;;;4.53;2.08;;;;;;;18.84;46.14;102491.34;5061354;28;20052;-62
2022/10/07 03:09:03;;;;;;;6.43;2.17;;;;;;;18.83;46.17;102486.97;5061005;28;20773;-63
2022/10/07 03:11:29;;;;;;;6.18;2.10;;;;;;;18.78;46.32;102472.31;5061018;28;20052;-64
2022/10/07 03:13:54;;;;;;;4.70;2.25;;;;;;;18.77;46.45;102471.50;5061131;28;20461;-63
2022/10/07 03:16:19;;;;;;;5.65;1.95;;;;;;;18.79;46.37;102474.88;5061721;28;20098;-66
2022/10/07 03:18:45;;;;;;;4.88;2.13;;;;;;;18.80;46.01;102479.22;5060692;28;20043;-63
2022/10/07 03:21:10;;;;;;;7.72;2.30;;;;;;;18.78;46.26;102467.03;5059696;28;20048;-64
2022/10/07 03:23:35;;;;;;;6.00;1.90;;;;;;;18.77;46.10;102460.06;5060909;28;20030;-63
2022/10/07 03:26:01;;;;;;;5.55;1.88;;;;;;;18.78;46.15;102467.03;5060691;28;20135;-64
2022/10/07 03:28:29;;;;;;;5.45;1.90;;;;;;;18.83;46.10;102476.41;5059564;28;20476;-62
2022/10/07 03:31:06;;;;;;;5.53;1.92;;;;;;;18.84;46.20;102470.19;5060823;28;20047;-63
2022/10/07 03:33:31;;;;;;;8.18;2.20;;;;;;;18.75;46.11;102459.31;5061162;28;20028;-64
2022/10/07 03:35:56;;;;;;;5.72;2.55;;;;;;;18.75;46.24;102456.66;5060981;28;20029;-63
2022/10/07 03:38:22;;;;;;;6.80;2.40;;;;;;;18.74;46.18;102447.03;5061041;28;20028;-62
2022/10/07 03:40:48;;;;;;;7.83;2.10;;;;;;;18.76;46.24;102455.72;5060467;28;20278;-63
2022/10/07 03:43:13;;;;;;;5.50;2.17;;;;;;;18.78;46.12;102453.84;5059572;28;20273;-64
2022/10/07 03:45:43;;;;;;;6.72;2.00;;;;;;;18.68;46.12;102435.03;5061098;28;20032;-64
2022/10/07 03:48:08;;;;;;;6.05;1.80;;;;;;;18.74;45.80;102447.03;5060789;28;20070;-64
2022/10/07 03:50:33;;;;;;;5.05;1.77;;;;;;;18.71;46.29;102436.63;5061052;28;20044;-66
2022/10/07 03:52:59;;;;;;;4.22;1.92;;;;;;;18.79;46.01;102456.41;5060676;28;20059;-63
2022/10/07 03:55:24;;;;;;;5.15;1.90;;;;;;;18.80;45.95;102457.22;5060792;28;20025;-62
2022/10/07 03:57:49;;;;;;;5.60;1.75;;;;;;;18.79;46.09;102458.19;5060796;28;20139;-64
2022/10/07 04:00:20;;;;;;;4.65;1.90;;;;;;;18.72;46.33;102446.28;5060939;28;20120;-62
2022/10/07 04:02:46;;;;;;;7.05;2.00;;;;;;;18.73;46.06;102448.81;5060340;28;20039;-63
2022/10/07 04:05:14;;;;;;;6.60;2.03;;;;;;;18.78;46.09;102464.41;5062464;28;20028;-65
2022/10/07 04:07:44;;;;;;;4.90;1.90;;;;;;;18.75;46.11;102449.56;5064299;28;20025;-64
2022/10/07 04:10:14;;;;;;;7.35;1.80;;;;;;;18.74;46.15;102452.31;5064501;28;20051;-63
2022/10/07 04:12:40;;;;;;;4.70;2.05;;;;;;;18.72;45.94;102443.63;5064170;28;20021;-64
2022/10/07 04:15:06;;;;;;;5.93;2.47;;;;;;;18.70;46.01;102441.09;5064439;28;20535;-62
2022/10/07 04:17:32;;;;;;;5.20;2.08;;;;;;;18.72;45.78;102439.19;5064344;28;20520;-65
2022/10/07 04:19:58;;;;;;;4.85;2.05;;;;;;;18.70;46.08;102443.72;5064247;28;20123;-64
2022/10/07 04:22:23;;;;;;;4.60;1.88;;;;;;;18.74;46.02;102433.81;5064138;28;20024;-64
2022/10/07 04:25:34;;;;;;;5.28;2.00;;;;;;;18.75;45.85;102443.47;5064200;28;20028;-63
2022/10/07 04:27:35;;;;;;;6.00;2.00;;;;;;;18.68;46.00;102427.97;5060090;28;20141;-65
2022/10/07 04:30:02;;;;;;;5.57;2.30;;;;;;;18.73;45.65;102435.63;5064095;28;20043;-64
2022/10/07 04:32:27;;;;;;;5.80;1.98;;;;;;;18.68;45.91;102432.41;5063692;28;20055;-63
2022/10/07 04:34:52;;;;;;;5.20;1.80;;;;;;;18.71;45.90;102434.00;5063972;28;20118;-63
2022/10/07 04:37:18;;;;;;;5.90;2.20;;;;;;;18.71;45.67;102440.16;5063946;28;20039;-66
2022/10/07 04:39:43;;;;;;;5.60;2.17;;;;;;;18.67;45.84;102425.41;5064165;28;20866;-64
2022/10/07 04:43:17;;;;;;;4.47;1.80;;;;;;;18.65;45.63;102429.94;5063319;28;20041;-65
2022/10/07 04:44:53;;;;;;;7.00;1.70;;;;;;;18.72;45.92;102436.56;5063935;28;20025;-63
2022/10/07 04:47:19;;;;;;;6.47;2.00;;;;;;;18.70;45.85;102437.59;5063540;28;20035;-64
2022/10/07 04:49:44;;;;;;;5.37;1.73;;;;;;;18.65;45.95;102429.94;5063717;28;20265;-63
2022/10/07 04:52:09;;;;;;;7.20;2.17;;;;;;;18.71;45.63;102436.63;5063842;28;20805;-64
2022/10/07 04:54:34;;;;;;;4.22;1.65;;;;;;;18.68;45.85;102432.41;5063860;28;20037;-65
2022/10/07 04:57:00;;;;;;;4.97;1.83;;;;;;;18.64;45.87;102422.94;5063596;28;20111;-63
2022/10/07 04:59:25;;;;;;;5.43;2.00;;;;;;;18.64;45.71;102426.47;5063633;28;20043;-63
2022/10/07 05:01:50;;;;;;;5.50;2.15;;;;;;;18.64;45.90;102417.66;5063162;28;20061;-64
2022/10/07 05:04:16;;;;;;;4.87;1.93;;;;;;;18.69;45.44;102426.16;5063509;28;20033;-65
2022/10/07 05:06:41;;;;;;;6.47;2.10;;;;;;;18.68;45.71;102425.31;5063450;28;20859;-63
2022/10/07 05:09:06;;;;;;;6.32;2.35;;;;;;;18.62;45.53;102404.56;5063179;28;20261;-63
2022/10/07 05:11:32;;;;;;;6.35;2.13;;;;;;;18.61;45.89;102409.94;5063399;28;20032;-63
2022/10/07 05:13:57;;;;;;;5.33;1.90;;;;;;;18.65;45.98;102414.09;5063376;28;20052;-62
2022/10/07 05:16:22;;;;;;;4.60;1.80;;;;;;;18.64;45.65;102415.91;5062868;28;20331;-63
2022/10/07 05:18:47;;;;;;;5.90;1.93;;;;;;;18.57;45.93;102401.34;5063218;28;20418;-67
2022/10/07 05:21:13;;;;;;;5.22;2.00;;;;;;;18.64;45.42;102412.38;5063057;28;20753;-65
2022/10/07 05:23:38;;;;;;;4.57;1.88;;;;;;;18.58;45.61;102403.06;5063189;28;20025;-63
2022/10/07 05:26:06;;;;;;;8.20;1.77;;;;;;;18.56;45.76;102388.22;5062990;28;20063;-63
2022/10/07 05:28:32;;;;;;;5.57;1.90;;;;;;;18.61;45.56;102402.88;5062991;28;20273;-65
2022/10/07 05:31:09;;;;;;;6.28;2.10;;;;;;;18.58;45.34;102395.13;5063061;28;20024;-65
2022/10/07 05:33:35;;;;;;;5.13;2.00;;;;;;;18.56;45.74;102391.72;5062982;28;20123;-63
2022/10/07 05:36:01;;;;;;;6.60;2.35;;;;;;;18.60;45.86;102390.59;5062934;28;20060;-63
2022/10/07 05:38:27;;;;;;;4.47;1.50;;;;;;;18.65;45.51;102392.97;5062763;28;20086;-63
2022/10/07 05:41:03;;;;;;;6.68;1.92;;;;;;;18.62;45.32;102386.06;5062904;28;20028;-63
2022/10/07 05:43:30;;;;;;;5.13;1.90;;;;;;;18.71;45.45;102397.03;5062525;28;20464;-64
2022/10/07 05:46:13;;;;;;;5.45;1.80;;;;;;;18.67;45.39;102384.03;5062855;28;20113;-64
2022/10/07 05:48:39;;;;;;;4.32;1.77;;;;;;;18.74;45.67;102395.06;5062631;28;20036;-63
2022/10/07 05:51:06;;;;;;;6.95;1.73;;;;;;;18.76;45.73;102389.69;5062478;28;20040;-63
2022/10/07 05:53:32;;;;;;;6.78;2.38;;;;;;;18.75;45.50;102383.56;5062255;28;20487;-63
2022/10/07 05:55:57;;;;;;;5.45;1.75;;;;;;;18.81;45.47;102390.28;5062559;28;20025;-63
2022/10/07 05:58:23;;;;;;;7.78;1.90;;;;;;;18.84;45.81;102390.97;5062351;28;20039;-64
2022/10/07 06:00:53;;;;;;;4.95;2.03;;;;;;;18.82;45.90;102384.06;5062179;28;20032;-70
2022/10/07 06:03:19;;;;;;;9.80;4.10;;;;;;;18.77;43.88;102381.69;5062332;28;20097;-63
2022/10/07 06:05:46;;;;;;;5.90;1.77;;;;;;;18.72;45.36;102389.00;5062399;28;20032;-63
2022/10/07 06:08:11;;;;;;;4.65;1.73;;;;;;;18.70;46.15;102379.50;5062223;28;20029;-66
2022/10/07 06:13:21;;;;;;;4.77;1.80;;;;;;;18.72;46.25;102364.41;5062617;28;20043;-63
2022/10/07 06:15:46;;;;;;;5.72;1.92;;;;;;;18.79;46.24;102373.69;5062171;28;20028;-61
2022/10/07 06:18:11;;;;;;;6.23;1.80;;;;;;;18.87;46.14;102375.84;5061993;28;20055;-66
2022/10/07 06:20:36;;;;;;;4.67;1.70;;;;;;;18.86;46.17;102375.03;5061953;28;20277;-62
2022/10/07 06:23:02;;;;;;;6.03;2.00;;;;;;;18.89;46.46;102372.19;5061611;28;20272;-63
2022/10/07 06:25:27;;;;;;;5.30;1.70;;;;;;;18.98;46.25;102378.72;5061413;28;20295;-62
2022/10/07 06:27:56;;;;;;;5.85;1.70;;;;;;;18.93;46.78;102364.94;5060979;28;20852;-65
2022/10/07 06:30:22;;;;;;;7.50;1.98;;;;;;;18.97;46.40;102364.66;5062121;28;20103;-61
2022/10/07 06:32:47;;;;;;;5.57;2.03;;;;;;;18.99;46.50;102362.78;5061783;28;20478;-63
2022/10/07 06:35:12;;;;;;;5.10;1.90;;;;;;;19.09;46.62;102372.78;5061882;28;20033;-62
2022/10/07 06:37:38;;;;;;;7.45;2.10;;;;;;;19.05;46.44;102369.47;5061311;28;20380;-62
2022/10/07 06:40:04;;;;;;;7.00;1.88;;;;;;;19.06;46.64;102362.38;5061820;28;20039;-63
2022/10/07 06:42:30;;;;;;;7.22;1.85;;;;;;;19.07;46.66;102372.03;5060752;28;20435;-61
2022/10/07 06:44:55;;;;;;;6.78;1.90;;;;;;;19.07;46.60;102370.22;5061769;28;20047;-62
2022/10/07 06:47:21;;;;;;;5.78;1.67;;;;;;;19.09;46.65;102367.47;5061694;28;20028;-63
2022/10/07 06:49:46;;;;;;;5.28;1.50;;;;;;;19.15;46.67;102380.31;5061478;28;20451;-62
2022/10/07 06:52:12;;;;;;;7.13;2.00;;;;;;;19.11;46.91;102370.91;5061386;28;20068;-62
2022/10/07 06:54:37;;;;;;;5.72;1.90;;;;;;;19.12;46.85;102369.94;5061270;28;20042;-63
2022/10/07 06:57:02;;;;;;;4.50;1.70;;;;;;;19.17;46.75;102373.16;5061389;28;20029;-63
2022/10/07 06:59:28;;;;;;;6.70;2.78;;;;;;;19.17;46.98;102370.53;5061630;28;20823;-63
2022/10/07 07:01:53;;;;;;;6.75;1.70;;;;;;;19.16;46.88;102372.31;5061283;28;20040;-63
2022/10/07 07:04:18;;;;;;;6.20;1.83;;;;;;;19.23;47.02;102383.34;5061440;28;20036;-63
2022/10/07 07:06:44;;;;;;;5.25;1.60;;;;;;;19.20;46.94;102378.25;5061184;28;20265;-64
2022/10/07 07:09:09;;;;;;;6.63;2.20;;;;;;;19.20;47.22;102372.94;5061198;28;20306;-64
2022/10/07 07:11:39;;;;;;;12.10;1.67;;;;;;;19.29;47.57;102385.59;5061202;28;20280;-62
2022/10/07 07:14:06;;;;;;;5.13;1.67;;;;;;;19.26;46.92;102377.03;5061117;28;20301;-64
2022/10/07 07:16:31;;;;;;;8.13;2.15;;;;;;;19.25;46.71;102370.03;5061282;28;20062;-63
2022/10/07 07:19:04;;;;;;;5.50;1.65;;;;;;;19.29;46.87;102375.03;5061598;28;20033;-64
2022/10/07 07:21:32;;;;;;;5.72;1.80;;;;;;;19.27;47.16;102373.44;5060792;28;20062;-62
2022/10/07 07:23:58;;;;;;;5.65;1.67;;;;;;;19.29;46.83;102384.75;5061458;28;20479;-63
2022/10/07 07:26:23;;;;;;;7.30;1.90;;;;;;;19.27;47.30;102379.56;5061160;28;20119;-62
2022/10/07 07:28:59;;;;;;;6.80;1.85;;;;;;;19.27;47.08;102384.03;5060923;28;20025;-64
2022/10/07 07:31:27;;;;;;;6.35;1.48;;;;;;;19.29;47.36;102376.84;5058397;28;20047;-69
2022/10/07 07:33:53;;;;;;;7.05;1.90;;;;;;;19.30;47.31;102378.53;5059986;28;20035;-70
2022/10/07 07:36:22;;;;;;;6.43;1.77;;;;;;;19.37;47.47;102382.50;5060317;28;20364;-67
2022/10/07 07:38:52;;;;;;;8.75;1.75;;;;;;;19.32;47.38;102364.28;5061456;28;20056;-66
2022/10/07 07:41:20;;;;;;;8.10;1.90;;;;;;;19.44;47.18;102378.53;5064643;28;20068;-67
2022/10/07 07:43:50;;;;;;;8.07;1.67;;;;;;;19.42;47.20;102369.81;5063507;28;20032;-67
2022/10/07 07:46:18;;;;;;;5.47;1.67;;;;;;;19.46;47.09;102370.50;5063646;28;20115;-68
2022/10/07 07:48:43;;;;;;;7.18;1.90;;;;;;;19.56;47.08;102376.91;5063826;28;20032;-73
2022/10/07 07:51:09;;;;;;;5.57;1.63;;;;;;;19.57;46.85;102366.22;5063954;28;20037;-69
2022/10/07 07:53:36;;;;;;;4.68;1.48;;;;;;;19.63;46.69;102366.78;5064588;28;20036;-67
2022/10/07 07:56:02;;;;;;;6.35;1.90;;;;;;;19.74;46.74;102377.50;5064294;28;20372;-69
2022/10/07 07:58:28;;;;;;;6.72;2.00;;;;;;;19.78;46.78;102380.88;5063756;28;20031;-69
2022/10/07 08:01:16;;;;;;;4.38;1.35;;;;;;;19.75;46.51;102374.75;5079115;28;20487;-68
2022/10/07 08:03:43;;;;;;;6.60;1.67;;;;;;;19.80;46.36;102371.03;5064255;28;20032;-67
2022/10/07 08:06:10;;;;;;;5.68;1.58;;;;;;;19.79;46.66;102380.75;5062890;28;20029;-64
2022/10/07 08:08:36;;;;;;;8.18;1.60;;;;;;;19.77;46.85;102373.88;5064253;28;20033;-65
2022/10/07 08:11:19;;;;;;;5.07;1.63;;;;;;;19.73;46.84;102373.19;5064817;28;20386;-65
2022/10/07 08:13:46;;;;;;;5.63;1.58;;;;;;;19.75;46.81;102372.13;5064526;28;20032;-67
2022/10/07 08:16:16;;;;;;;7.72;2.10;;;;;;;19.71;47.19;102364.47;5063261;28;20052;-73
2022/10/07 08:18:47;;;;;;;6.45;1.50;;;;;;;19.77;46.86;102368.56;5063244;28;20358;-70
2022/10/07 08:21:14;;;;;;;7.45;1.52;;;;;;;19.72;47.02;102355.59;5063907;28;20060;-67
2022/10/07 08:23:40;;;;;;;5.20;1.38;;;;;;;19.74;46.68;102356.34;5063374;28;20105;-65
2022/10/07 08:26:06;;;;;;;5.45;1.75;;;;;;;19.73;46.87;102354.66;5063760;28;20084;-64
2022/10/07 08:28:32;;;;;;;4.15;1.50;;;;;;;19.73;46.74;102359.97;5064391;28;20028;-68
2022/10/07 08:31:13;;;;;;;7.70;1.70;;;;;;;19.68;47.03;102354.97;5063621;28;20024;-66
2022/10/07 08:33:40;;;;;;;8.43;1.50;;;;;;;19.66;46.96;102348.06;5063894;28;20481;-66
2022/10/07 08:36:07;;;;;;;6.50;1.58;;;;;;;19.63;46.87;102351.78;5064256;28;20036;-67
2022/10/07 08:38:34;;;;;;;4.78;1.70;;;;;;;19.67;47.28;102352.41;5064298;28;20036;-67
2022/10/07 08:41:35;;;;;;;4.80;1.50;;;;;;;19.67;46.93;102358.53;5063899;28;20071;-64
2022/10/07 08:44:16;;;;;;;5.15;1.80;;;;;;;19.60;47.33;102344.03;5064352;28;20036;-64
2022/10/07 08:46:54;;;;;;;5.63;1.52;;;;;;;19.65;47.09;102355.16;5063987;28;20115;-68
2022/10/07 08:49:43;;;;;;;4.68;1.35;;;;;;;19.65;47.27;102349.88;5064088;28;20389;-65
2022/10/07 08:52:31;;;;;;;5.40;1.60;;;;;;;19.60;47.32;102332.59;5052649;28;20048;-66
2022/10/07 08:54:58;;;;;;;5.65;1.65;;;;;;;19.56;47.52;102327.50;5064149;28;20052;-66
2022/10/07 08:57:52;;;;;;;5.70;1.80;;;;;;;19.62;47.45;102330.72;5063401;28;20025;-63
2022/10/07 09:00:19;;;;;;;5.30;1.60;;;;;;;19.56;47.66;102316.91;5060853;28;20400;-65
2022/10/07 09:03:23;;;;;;;6.95;1.60;;;;;;;19.62;47.74;102317.50;5063792;28;20078;-67
2022/10/07 09:05:49;;;;;;;5.55;1.30;;;;;;;19.53;47.86;102314.47;5064201;28;20037;-67
2022/10/07 09:08:26;;;;;;;5.22;1.52;;;;;;;19.57;47.86;102315.97;5063582;28;20427;-65
2022/10/07 09:10:54;;;;;;;7.07;1.80;;;;;;;19.45;47.82;102303.53;5063483;28;20043;-66
2022/10/07 09:13:27;;;;;;;5.55;1.40;;;;;;;19.52;47.93;102296.91;5063075;28;20036;-68
2022/10/07 09:16:05;;;;;;;9.10;1.73;;;;;;;19.55;48.01;102304.66;5062963;28;20128;-67
2022/10/07 09:18:40;;;;;;;7.55;1.75;;;;;;;19.61;47.92;102313.13;5063355;28;20068;-66
2022/10/07 09:21:12;;;;;;;4.85;1.23;;;;;;;19.55;48.22;102299.38;5062815;28;20090;-65
2022/10/07 09:23:37;;;;;;;5.82;1.45;;;;;;;19.61;48.00;102303.41;5062973;28;20379;-68
2022/10/07 09:26:15;;;;;;;4.95;1.40;;;;;;;19.58;48.07;102295.66;5063305;28;20056;-64
2022/10/07 09:28:41;;;;;;;6.57;1.92;;;;;;;19.59;48.04;102292.06;5063346;28;20476;-66
2022/10/07 09:31:07;;;;;;;5.00;1.85;;;;;;;19.66;48.22;102303.09;5062907;28;20063;-66
2022/10/07 09:33:39;;;;;;;4.55;1.73;;;;;;;19.64;48.20;102297.06;5063041;28;20047;-66
2022/10/07 09:36:10;;;;;;;4.55;1.50;;;;;;;19.63;48.23;102293.59;5063016;28;20115;-66
2022/10/07 09:38:38;;;;;;;5.57;1.92;;;;;;;19.62;48.38;102278.66;5063099;28;20056;-64
2022/10/07 09:41:23;;;;;;;7.38;1.67;;;;;;;19.63;48.18;102284.78;5062992;28;20456;-65
2022/10/07 09:43:48;;;;;;;;;;;;;;;19.69;48.42;102290.56;5063029;28;20079;-66
2022/10/07 09:46:30;;;;;;;5.53;1.45;;;;;;;19.71;48.45;102282.47;5062785;28;19949;-66
2022/10/07 09:48:57;;;;;;;5.97;1.70;;;;;;;19.71;48.29;102279.84;5063117;28;20984;-64
2022/10/07 09:51:25;;;;;;;8.73;1.90;;;;;;;19.65;48.12;102272.34;5060518;28;20480;-71
2022/10/07 09:54:01;;;;;;;7.60;1.73;;;;;;;19.74;48.41;102279.63;5062134;28;20033;-71
2022/10/07 09:56:44;;;;;;;6.80;1.90;;;;;;;19.77;48.90;102283.94;5061336;28;20374;-65
2022/10/07 09:59:22;;;;;;;8.68;1.75;;;;;;;19.83;48.35;102278.22;5061522;28;20039;-71
2022/10/07 10:01:58;;;;;;;7.82;2.10;;;;;;;19.87;48.19;102271.81;5060728;28;20025;-69
2022/10/07 10:04:35;;;;;;;6.97;1.73;;;;;;;19.93;48.04;102272.25;5061663;28;20028;-67
2022/10/07 10:07:29;;;;;;;9.85;2.10;;;;;;;20.00;47.79;102264.72;5061717;28;20024;-68
2022/10/07 10:10:16;;;;;;;5.60;1.52;;;;;;;20.04;47.81;102274.13;5058282;28;20119;-67
2022/10/07 10:12:50;;;;;;;7.07;2.05;;;;;;;19.98;47.71;102255.19;5061236;28;20063;-63
2022/10/07 10:15:24;;;;;;;7.05;1.52;;;;;;;20.05;47.66;102267.91;5061889;28;20027;-62
2022/10/07 10:17:50;;;;;;;5.72;1.80;;;;;;;20.02;48.02;102254.03;5061120;28;20032;-64
2022/10/07 10:20:37;;;;;;;9.30;2.30;;;;;;;20.02;47.84;102251.41;5061989;28;20222;-64
2022/10/07 10:23:25;;;;;;;5.85;1.60;;;;;;;20.01;47.81;102237.34;5059318;28;20048;-67
2022/10/07 10:26:24;;;;;;;8.27;1.98;;;;;;;20.01;48.01;102239.97;5060886;28;21194;-65
2022/10/07 10:29:04;;;;;;;7.72;2.00;;;;;;;19.99;47.85;102233.09;5060604;28;20837;-68
2022/10/07 10:31:44;;;;;;;10.45;2.40;;;;;;;19.98;48.02;102226.94;5060359;28;20793;-61
2022/10/07 10:34:37;;;;;;;6.53;1.88;;;;;;;19.97;48.19;102219.13;5060605;28;20035;-61
2022/10/07 10:37:13;;;;;;;7.50;1.80;;;;;;;19.98;47.98;102218.16;5061816;28;20044;-64
2022/10/07 10:39:57;;;;;;;6.78;2.15;;;;;;;19.98;48.12;102218.16;5061553;28;20028;-63
2022/10/07 10:42:36;;;;;;;8.97;2.13;;;;;;;19.92;47.91;102196.44;5061505;28;20025;-64
2022/10/07 10:45:36;;;;;;;7.18;1.75;;;;;;;19.97;48.43;102198.78;5061550;28;20268;-62
2022/10/07 10:48:19;;;;;;;8.90;1.90;;;;;;;20.02;48.35;102206.41;5061632;28;20056;-63
2022/10/07 10:51:04;;;;;;;13.80;2.22;;;;;;;20.02;48.37;102195.84;5061245;28;20055;-63
2022/10/07 10:54:04;;;;;;;8.27;1.92;;;;;;;20.02;48.29;102195.84;5061113;28;20040;-63
2022/10/07 10:56:52;;;;;;;10.65;2.50;;;;;;;20.05;48.19;102195.63;5058955;28;20430;-69
2022/10/07 10:59:52;;;;;;;12.00;2.05;;;;;;;20.08;48.29;102192.75;5059585;28;20032;-70
2022/10/07 11:02:37;;;;;;;7.10;1.70;;;;;;;20.10;48.36;102185.56;5060458;28;20488;-72
2022/10/07 11:05:05;;;;;;;8.60;1.90;;;;;;;19.95;48.23;102161.00;5060683;28;20051;-69
2022/10/07 11:08:03;;;;;;;7.13;1.92;;;;;;;20.10;48.30;102186.41;5059927;28;20039;-67
2022/10/07 11:10:45;;;;;;;7.95;1.80;;;;;;;20.04;48.29;102175.38;5057972;28;20044;-67
2022/10/07 11:13:50;;;;;;;7.18;1.80;;;;;;;20.06;48.07;102171.69;5060243;28;20024;-67
2022/10/07 11:16:21;;;;;;;8.00;1.70;;;;;;;19.91;48.17;102149.75;5061111;28;20504;-68
2022/10/07 11:19:01;;;;;;;9.32;1.90;;;;;;;20.05;47.98;102169.16;5061548;28;20033;-66
2022/10/07 11:21:40;;;;;;;6.75;1.70;;;;;;;20.00;48.09;102153.59;5061126;28;20082;-66
2022/10/07 11:24:38;;;;;;;5.80;1.48;;;;;;;19.96;48.18;102148.63;5061876;28;20037;-68
2022/10/07 11:27:15;;;;;;;6.97;1.83;;;;;;;20.03;47.96;102160.50;5059630;28;20060;-68
2022/10/07 11:30:07;;;;;;;5.80;1.40;;;;;;;20.02;47.79;102145.56;5061308;28;20041;-67
2022/10/07 11:32:37;;;;;;;6.22;1.42;;;;;;;20.01;48.07;102147.38;5061267;28;20024;-66
2022/10/07 11:35:24;;;;;;;7.68;1.90;;;;;;;20.00;48.03;102135.06;5061098;28;20032;-67
2022/10/07 11:38:12;;;;;;;8.95;1.70;;;;;;;20.01;48.20;102135.91;5061521;28;20583;-65
2022/10/07 11:40:55;;;;;;;9.02;1.80;;;;;;;20.00;48.08;102121.84;5060910;28;20028;-67
2022/10/07 11:43:31;;;;;;;9.77;1.93;;;;;;;20.00;48.11;102115.72;5061370;28;20042;-68
2022/10/07 11:46:02;;;;;;;8.32;2.00;;;;;;;20.01;47.94;102112.09;5061195;28;20040;-66
2022/10/07 11:49:00;;;;;;;6.43;2.08;;;;;;;19.99;47.99;102100.78;5061518;28;20127;-67
2022/10/07 11:51:39;;;;;;;6.60;1.63;;;;;;;19.93;48.11;102096.75;5052635;28;20395;-66